WetterOnline ( https://www.wetteronline.de )

Wetter aktuell Warburg

Aktuelles Wetter: Warburg (237m)

6-stündlich | Neueste Meldungen
Ortszeit Temperatur Wetter
Fr, 18.06. 20:00 22.1° C bedeckt
Fr, 18.06. 14:00 30.7° C wolkig
Fr, 18.06. 8:00 20.8° C wolkenlos
Fr, 18.06. 2:00 18.6° C wolkenlos
Do, 17.06. 20:00 29.4° C fast wolkenlos
Do, 17.06. 14:00 30.4° C wolkenlos
Do, 17.06. 8:00 20.3° C wolkenlos
Do, 17.06. 2:00 18.4° C wolkig
Ortszeit Temperatur Wetter
Fr, 18.06. 20:00 22.1° C bedeckt
Fr, 18.06. 19:50 22.1° C bedeckt
Fr, 18.06. 19:40 21.9° C bedeckt
Fr, 18.06. 19:30 21.5° C bedeckt
Fr, 18.06. 19:20 21.5° C bedeckt
Fr, 18.06. 19:10 21.2° C wolkig
Fr, 18.06. 19:00 21.4° C Regen
Fr, 18.06. 18:30 20.8° C starker Regen
Fr, 18.06. 18:00 21.3° C bewölkt
Fr, 18.06. 17:30 -° C bedeckt
Fr, 18.06. 17:00 -° C bewölkt
Ortszeit Relative Feuchte Sichtweite
Fr, 18.06. 20:00 88% 27 km
Fr, 18.06. 14:00 52% 30 km
Fr, 18.06. 8:00 74% 28 km
Fr, 18.06. 2:00 86% 30 km
Do, 17.06. 20:00 41% 40 km
Do, 17.06. 14:00 38% 40 km
Do, 17.06. 8:00 78% 20 km
Do, 17.06. 2:00 89% 24 km
Ortszeit Relative Feuchte Sichtweite
Fr, 18.06. 20:00 88% 27 km
Fr, 18.06. 19:50 88% -
Fr, 18.06. 19:40 89% -
Fr, 18.06. 19:30 90% 23 km
Fr, 18.06. 19:20 90% -
Fr, 18.06. 19:10 92% -
Fr, 18.06. 19:00 89% 30 km
Fr, 18.06. 18:30 88% 4.5 km
Fr, 18.06. 18:00 82% 30 km
Fr, 18.06. 17:30 - 35 km
Fr, 18.06. 17:00 - 2.6 km
Ortszeit Niederschlagsmenge Niederschlagsart
Fr, 18.06. 20:00 14 l/m2 in 12 Std. Regen
Fr, 18.06. 14:00 0.0 l/m2 in 6 Std. -
Fr, 18.06. 8:00 0.0 l/m2 in 12 Std. -
Fr, 18.06. 2:00 0.0 l/m2 in 6 Std. -
Do, 17.06. 20:00 0.0 l/m2 in 12 Std. -
Do, 17.06. 14:00 0.0 l/m2 in 6 Std. -
Do, 17.06. 8:00 0.0 l/m2 in 12 Std. -
Do, 17.06. 2:00 0.0 l/m2 in 6 Std. -
Ortszeit Niederschlagsmenge Niederschlagsart
Fr, 18.06. 20:00 0.0 l/m2 in 1 Std. Regen
Fr, 18.06. 19:50 keine Meldung -
Fr, 18.06. 19:40 keine Meldung -
Fr, 18.06. 19:30 0.0 l/m2 in 1 Std. -
Fr, 18.06. 19:20 keine Meldung -
Fr, 18.06. 19:10 keine Meldung -
Fr, 18.06. 19:00 4.0 l/m2 in 1 Std. Regen
Fr, 18.06. 18:30 3.7 l/m2 in 1 Std. -
Fr, 18.06. 18:00 8.5 l/m2 in 1 Std. Regen
Fr, 18.06. 17:30 8.5 l/m2 in 1 Std. Schneeregen
Fr, 18.06. 17:00 1.5 l/m2 in 1 Std. Regen
Ortszeit Stärke Spitze Richtung
km/h Bft. km/h Grad Sektor
Fr, 18.06. 20:00 7 2 58 190° S
Fr, 18.06. 14:00 20 4 26 310° NW
Fr, 18.06. 8:00 4 1 14 200° S
Fr, 18.06. 2:00 4 1 22 220° SW
Do, 17.06. 20:00 14 3 36 150° SO
Do, 17.06. 14:00 18 3 32 140° SO
Do, 17.06. 8:00 2 1 13 200° S
Do, 17.06. 2:00 4 1 18 160° S
Ortszeit Stärke Spitze Richtung
km/h Bft. km/h Grad Sektor
Fr, 18.06. 20:00 7 2 11 190° S
Fr, 18.06. 19:50 7 2 - 190° S
Fr, 18.06. 19:40 7 2 - 180° S
Fr, 18.06. 19:30 7 2 11 160° S
Fr, 18.06. 19:20 7 2 - 160° S
Fr, 18.06. 19:10 7 2 - 140° SO
Fr, 18.06. 19:00 11 2 40 290° W
Fr, 18.06. 18:30 11 2 40 240° SW
Fr, 18.06. 18:00 17 3 59 310° NW
Fr, 18.06. 17:30 33 5 59 280° W
Fr, 18.06. 17:00 29 5 47 260° W
Ortszeit Untergrenze Bedeckung Gattung
total tief tief mittel hoch
Fr, 18.06. 20:00 4200 m 8/8 8/8 - - -
Fr, 18.06. 14:00 1800 m 7/8 3/8 - - -
Fr, 18.06. 8:00 - 0/8 0/8 - - -
Fr, 18.06. 2:00 - 0/8 0/8 - - -
Do, 17.06. 20:00 10500 m 2/8 0/8 - - -
Do, 17.06. 14:00 - 0/8 0/8 - - -
Do, 17.06. 8:00 - 0/8 0/8 - - -
Do, 17.06. 2:00 9000 m 8/8 0/8 - - -
Ortszeit Bedeckungsgrad in Achtel und Wolkenuntergrenze
Fr, 18.06. 20:00 8(4200m) 8(4800m)
Fr, 18.06. 19:50 8(4200m) 8(4800m)
Fr, 18.06. 19:40 8(3900m) 8(4500m)
Fr, 18.06. 19:30 8(3900m) 8(4500m)
Fr, 18.06. 19:20 8(3900m) 8(4500m)
Fr, 18.06. 19:10 1(2700m) 8(3900m) 8(4500m)
Fr, 18.06. 19:00 1(2100m) 8(3300m) 8(3900m)
Fr, 18.06. 18:30 1(1500m) 7(2400m) 8(2700m)
Fr, 18.06. 18:00 4(2100m) 7(2700m) 8(3300m)
Fr, 18.06. 17:30 2(240m) 7(2100m) 8(2700m)
Fr, 18.06. 17:00 2(270m) 7(2100m) 8(3000m)
Ortszeit Luftdruck NN (hPa) Tendenz (hPa in 3 Std.)
Fr, 18.06. 20:00 1012 - 0,8
Fr, 18.06. 14:00 1012 - 0,4
Fr, 18.06. 8:00 1014 + 0,5
Fr, 18.06. 2:00 1014 + 0,3
Do, 17.06. 20:00 1011 - 0,2
Do, 17.06. 14:00 1012 - 0,5
Do, 17.06. 8:00 1013 + 0,6
Do, 17.06. 2:00 1014 - 0,1
Ortszeit Luftdruck NN (hPa) Tendenz (hPa in 3 Std.)
Fr, 18.06. 20:00 1012 - 0,8
Fr, 18.06. 19:50 1012 keine Meldung
Fr, 18.06. 19:40 1012 keine Meldung
Fr, 18.06. 19:30 1012 + 0,2
Fr, 18.06. 19:20 1012 keine Meldung
Fr, 18.06. 19:10 1012 keine Meldung
Fr, 18.06. 19:00 1012 - 0,2
Fr, 18.06. 18:30 1013 + 0,6
Fr, 18.06. 18:00 1013 0,0
Fr, 18.06. 17:30 1013 + 0,3
Fr, 18.06. 17:00 1013 + 0,3
Ortszeit Schneehöhe (cm)
Fr, 18.06. 20:00 -
Fr, 18.06. 14:00 -
Fr, 18.06. 8:00 -
Fr, 18.06. 2:00 -
Do, 17.06. 20:00 -
Do, 17.06. 14:00 -
Do, 17.06. 8:00 -
Do, 17.06. 2:00 -
Ortszeit Schneehöhe (cm)
Fr, 18.06. 20:00 -
Fr, 18.06. 19:50 -
Fr, 18.06. 19:40 -
Fr, 18.06. 19:30 -
Fr, 18.06. 19:20 -
Fr, 18.06. 19:10 -
Fr, 18.06. 19:00 -
Fr, 18.06. 18:30 -
Fr, 18.06. 18:00 -
Fr, 18.06. 17:30 -
Fr, 18.06. 17:00 -
Link zu dieser Seite / Seite empfehlen

Das Wetter in ...